sensor_id;sensor_type;location;lat;lon;timestamp;temperature;humidity
21787;DHT22;11055;50.870;4.316;2023-04-03T00:01:05;6.70;99.90
21787;DHT22;11055;50.870;4.316;2023-04-03T00:03:31;6.80;99.90
21787;DHT22;11055;50.870;4.316;2023-04-03T00:05:57;6.90;99.90
21787;DHT22;11055;50.870;4.316;2023-04-03T00:08:23;6.80;99.90
21787;DHT22;11055;50.870;4.316;2023-04-03T00:10:50;6.80;99.90
21787;DHT22;11055;50.870;4.316;2023-04-03T00:13:15;6.80;99.90
21787;DHT22;11055;50.870;4.316;2023-04-03T00:15:41;6.60;99.90
21787;DHT22;11055;50.870;4.316;2023-04-03T00:18:07;6.60;99.90
21787;DHT22;11055;50.870;4.316;2023-04-03T00:20:33;6.50;99.90
21787;DHT22;11055;50.870;4.316;2023-04-03T00:22:59;6.40;99.90
21787;DHT22;11055;50.870;4.316;2023-04-03T00:25:25;6.40;99.90
21787;DHT22;11055;50.870;4.316;2023-04-03T00:27:51;6.40;99.90
21787;DHT22;11055;50.870;4.316;2023-04-03T00:30:19;6.30;99.90
21787;DHT22;11055;50.870;4.316;2023-04-03T00:32:47;6.40;99.90
21787;DHT22;11055;50.870;4.316;2023-04-03T00:35:12;6.60;99.90
21787;DHT22;11055;50.870;4.316;2023-04-03T00:37:41;6.60;99.90
21787;DHT22;11055;50.870;4.316;2023-04-03T00:40:08;6.70;99.90
21787;DHT22;11055;50.870;4.316;2023-04-03T00:42:33;6.60;99.90
21787;DHT22;11055;50.870;4.316;2023-04-03T00:47:26;6.50;99.90
21787;DHT22;11055;50.870;4.316;2023-04-03T00:49:52;6.40;99.90
21787;DHT22;11055;50.870;4.316;2023-04-03T00:52:23;6.40;99.90
21787;DHT22;11055;50.870;4.316;2023-04-03T00:54:52;6.30;99.90
21787;DHT22;11055;50.870;4.316;2023-04-03T00:57:21;6.20;99.90
21787;DHT22;11055;50.870;4.316;2023-04-03T00:59:51;6.20;99.90
21787;DHT22;11055;50.870;4.316;2023-04-03T01:02:19;6.20;99.90
21787;DHT22;11055;50.870;4.316;2023-04-03T01:04:44;6.30;99.90
21787;DHT22;11055;50.870;4.316;2023-04-03T01:07:16;6.20;99.90
21787;DHT22;11055;50.870;4.316;2023-04-03T01:09:43;6.20;99.90
21787;DHT22;11055;50.870;4.316;2023-04-03T01:14:43;6.10;99.90
21787;DHT22;11055;50.870;4.316;2023-04-03T01:22:35;6.00;99.90
21787;DHT22;11055;50.870;4.316;2023-04-03T01:25:05;6.10;99.90
21787;DHT22;11055;50.870;4.316;2023-04-03T01:27:31;6.10;99.90
21787;DHT22;11055;50.870;4.316;2023-04-03T01:29:57;6.20;99.90
21787;DHT22;11055;50.870;4.316;2023-04-03T01:32:23;6.10;99.90
21787;DHT22;11055;50.870;4.316;2023-04-03T01:34:48;6.20;99.90
21787;DHT22;11055;50.870;4.316;2023-04-03T01:37:14;6.10;99.90
21787;DHT22;11055;50.870;4.316;2023-04-03T01:39:40;6.00;99.90
21787;DHT22;11055;50.870;4.316;2023-04-03T01:42:05;6.00;99.90
21787;DHT22;11055;50.870;4.316;2023-04-03T01:44:31;5.90;99.90
21787;DHT22;11055;50.870;4.316;2023-04-03T01:46:57;5.70;99.90
21787;DHT22;11055;50.870;4.316;2023-04-03T01:49:23;5.70;99.90
21787;DHT22;11055;50.870;4.316;2023-04-03T01:51:48;5.60;99.90
21787;DHT22;11055;50.870;4.316;2023-04-03T01:54:14;5.60;99.90
21787;DHT22;11055;50.870;4.316;2023-04-03T01:56:39;5.60;99.90
21787;DHT22;11055;50.870;4.316;2023-04-03T01:59:05;5.60;99.90
21787;DHT22;11055;50.870;4.316;2023-04-03T02:01:31;5.50;99.90
21787;DHT22;11055;50.870;4.316;2023-04-03T02:03:56;5.50;99.90
21787;DHT22;11055;50.870;4.316;2023-04-03T02:06:22;5.50;99.90
21787;DHT22;11055;50.870;4.316;2023-04-03T02:08:48;5.50;99.90
21787;DHT22;11055;50.870;4.316;2023-04-03T02:11:13;5.50;99.90
21787;DHT22;11055;50.870;4.316;2023-04-03T02:13:39;5.50;99.90
21787;DHT22;11055;50.870;4.316;2023-04-03T02:16:09;5.50;99.90
21787;DHT22;11055;50.870;4.316;2023-04-03T02:18:36;5.40;99.90
21787;DHT22;11055;50.870;4.316;2023-04-03T02:21:02;5.50;99.90
21787;DHT22;11055;50.870;4.316;2023-04-03T02:23:28;5.50;99.90
21787;DHT22;11055;50.870;4.316;2023-04-03T02:26:01;5.40;99.90
21787;DHT22;11055;50.870;4.316;2023-04-03T02:28:27;5.50;99.90
21787;DHT22;11055;50.870;4.316;2023-04-03T02:30:52;5.40;99.90
21787;DHT22;11055;50.870;4.316;2023-04-03T02:33:18;5.30;99.90
21787;DHT22;11055;50.870;4.316;2023-04-03T02:35:44;5.20;99.90
21787;DHT22;11055;50.870;4.316;2023-04-03T02:38:11;5.30;99.90
21787;DHT22;11055;50.870;4.316;2023-04-03T02:40:37;5.30;99.90
21787;DHT22;11055;50.870;4.316;2023-04-03T02:43:03;5.40;99.90
21787;DHT22;11055;50.870;4.316;2023-04-03T02:45:28;5.30;99.90
21787;DHT22;11055;50.870;4.316;2023-04-03T02:47:54;5.30;99.90
21787;DHT22;11055;50.870;4.316;2023-04-03T02:50:20;5.20;99.90
21787;DHT22;11055;50.870;4.316;2023-04-03T02:52:45;5.10;99.90
21787;DHT22;11055;50.870;4.316;2023-04-03T02:55:14;5.10;99.90
21787;DHT22;11055;50.870;4.316;2023-04-03T02:57:41;5.10;99.90
21787;DHT22;11055;50.870;4.316;2023-04-03T03:00:08;5.10;99.90
21787;DHT22;11055;50.870;4.316;2023-04-03T03:02:35;5.10;99.90
21787;DHT22;11055;50.870;4.316;2023-04-03T03:05:00;5.10;99.90
21787;DHT22;11055;50.870;4.316;2023-04-03T03:07:26;5.20;99.90
21787;DHT22;11055;50.870;4.316;2023-04-03T03:09:52;5.20;99.90
21787;DHT22;11055;50.870;4.316;2023-04-03T03:12:17;5.20;99.90
21787;DHT22;11055;50.870;4.316;2023-04-03T03:14:47;5.20;99.90
21787;DHT22;11055;50.870;4.316;2023-04-03T03:17:13;5.10;99.90
21787;DHT22;11055;50.870;4.316;2023-04-03T03:19:39;5.20;99.90
21787;DHT22;11055;50.870;4.316;2023-04-03T03:22:05;5.20;99.90
21787;DHT22;11055;50.870;4.316;2023-04-03T03:24:30;5.20;99.90
21787;DHT22;11055;50.870;4.316;2023-04-03T03:26:56;5.20;99.90
21787;DHT22;11055;50.870;4.316;2023-04-03T03:29:22;5.30;99.90
21787;DHT22;11055;50.870;4.316;2023-04-03T03:31:47;5.20;99.90
21787;DHT22;11055;50.870;4.316;2023-04-03T03:34:13;5.10;99.90
21787;DHT22;11055;50.870;4.316;2023-04-03T03:36:39;5.10;99.90
21787;DHT22;11055;50.870;4.316;2023-04-03T03:39:05;5.10;99.90
21787;DHT22;11055;50.870;4.316;2023-04-03T03:41:30;5.10;99.90
21787;DHT22;11055;50.870;4.316;2023-04-03T03:43:56;5.10;99.90
21787;DHT22;11055;50.870;4.316;2023-04-03T03:46:22;5.10;99.90
21787;DHT22;11055;50.870;4.316;2023-04-03T03:48:48;5.10;99.90
21787;DHT22;11055;50.870;4.316;2023-04-03T03:51:14;5.10;99.90
21787;DHT22;11055;50.870;4.316;2023-04-03T03:53:39;5.10;99.90
21787;DHT22;11055;50.870;4.316;2023-04-03T03:56:05;5.10;99.90
21787;DHT22;11055;50.870;4.316;2023-04-03T03:58:31;5.20;99.90
21787;DHT22;11055;50.870;4.316;2023-04-03T04:01:01;5.20;99.90
21787;DHT22;11055;50.870;4.316;2023-04-03T04:03:27;5.20;99.90
21787;DHT22;11055;50.870;4.316;2023-04-03T04:05:53;5.20;99.90
21787;DHT22;11055;50.870;4.316;2023-04-03T04:08:18;5.30;99.90
21787;DHT22;11055;50.870;4.316;2023-04-03T04:10:44;5.30;99.90
21787;DHT22;11055;50.870;4.316;2023-04-03T04:13:10;5.40;99.90
21787;DHT22;11055;50.870;4.316;2023-04-03T04:15:36;5.30;99.90
21787;DHT22;11055;50.870;4.316;2023-04-03T04:18:01;5.30;99.90
21787;DHT22;11055;50.870;4.316;2023-04-03T04:20:27;5.30;99.90
21787;DHT22;11055;50.870;4.316;2023-04-03T04:22:53;5.30;99.90
21787;DHT22;11055;50.870;4.316;2023-04-03T04:25:18;5.20;99.90
21787;DHT22;11055;50.870;4.316;2023-04-03T04:27:44;5.20;99.90
21787;DHT22;11055;50.870;4.316;2023-04-03T04:30:10;5.20;99.90
21787;DHT22;11055;50.870;4.316;2023-04-03T04:32:36;5.20;99.90
21787;DHT22;11055;50.870;4.316;2023-04-03T04:35:02;5.10;99.90
21787;DHT22;11055;50.870;4.316;2023-04-03T04:37:29;4.90;99.90
21787;DHT22;11055;50.870;4.316;2023-04-03T04:39:55;4.80;99.90
21787;DHT22;11055;50.870;4.316;2023-04-03T04:42:20;4.70;99.90
21787;DHT22;11055;50.870;4.316;2023-04-03T04:44:46;4.60;99.90
21787;DHT22;11055;50.870;4.316;2023-04-03T04:47:12;4.60;99.90
21787;DHT22;11055;50.870;4.316;2023-04-03T04:49:37;4.70;99.90
21787;DHT22;11055;50.870;4.316;2023-04-03T04:52:03;4.80;99.90
21787;DHT22;11055;50.870;4.316;2023-04-03T04:54:29;4.90;99.90
21787;DHT22;11055;50.870;4.316;2023-04-03T04:56:55;5.00;99.90
21787;DHT22;11055;50.870;4.316;2023-04-03T04:59:20;5.00;99.90
21787;DHT22;11055;50.870;4.316;2023-04-03T05:01:46;5.00;99.90
21787;DHT22;11055;50.870;4.316;2023-04-03T05:04:12;5.10;99.90
21787;DHT22;11055;50.870;4.316;2023-04-03T05:06:40;5.30;99.90
21787;DHT22;11055;50.870;4.316;2023-04-03T05:09:06;5.30;99.90
21787;DHT22;11055;50.870;4.316;2023-04-03T05:11:32;5.40;99.90
21787;DHT22;11055;50.870;4.316;2023-04-03T05:13:58;5.50;99.90
21787;DHT22;11055;50.870;4.316;2023-04-03T05:16:23;5.40;99.90
21787;DHT22;11055;50.870;4.316;2023-04-03T05:18:49;5.30;99.90
21787;DHT22;11055;50.870;4.316;2023-04-03T05:21:15;5.30;99.90
21787;DHT22;11055;50.870;4.316;2023-04-03T05:23:41;5.30;99.90
21787;DHT22;11055;50.870;4.316;2023-04-03T05:26:06;5.10;99.90
21787;DHT22;11055;50.870;4.316;2023-04-03T05:28:32;5.00;99.90
21787;DHT22;11055;50.870;4.316;2023-04-03T05:30:58;4.90;99.90
21787;DHT22;11055;50.870;4.316;2023-04-03T05:33:25;4.80;99.90
21787;DHT22;11055;50.870;4.316;2023-04-03T05:35:52;4.80;99.90
21787;DHT22;11055;50.870;4.316;2023-04-03T05:38:18;4.90;99.90
21787;DHT22;11055;50.870;4.316;2023-04-03T05:40:44;4.90;99.90
21787;DHT22;11055;50.870;4.316;2023-04-03T05:43:10;4.80;99.90
21787;DHT22;11055;50.870;4.316;2023-04-03T05:45:35;4.80;99.90
21787;DHT22;11055;50.870;4.316;2023-04-03T05:48:01;4.90;99.90
21787;DHT22;11055;50.870;4.316;2023-04-03T05:50:27;4.90;99.90
21787;DHT22;11055;50.870;4.316;2023-04-03T05:52:56;5.00;99.90
21787;DHT22;11055;50.870;4.316;2023-04-03T05:55:22;5.10;99.90
21787;DHT22;11055;50.870;4.316;2023-04-03T05:57:48;5.10;99.90
21787;DHT22;11055;50.870;4.316;2023-04-03T06:00:14;5.20;99.90
21787;DHT22;11055;50.870;4.316;2023-04-03T06:02:43;5.30;99.90
21787;DHT22;11055;50.870;4.316;2023-04-03T06:05:09;5.30;99.90
21787;DHT22;11055;50.870;4.316;2023-04-03T06:07:36;5.30;99.90
21787;DHT22;11055;50.870;4.316;2023-04-03T06:10:03;5.30;99.90
21787;DHT22;11055;50.870;4.316;2023-04-03T06:12:29;5.20;99.90
21787;DHT22;11055;50.870;4.316;2023-04-03T06:14:55;5.00;99.90
21787;DHT22;11055;50.870;4.316;2023-04-03T06:17:21;4.90;99.90
21787;DHT22;11055;50.870;4.316;2023-04-03T06:19:47;4.90;99.90
21787;DHT22;11055;50.870;4.316;2023-04-03T06:22:13;4.90;99.90
21787;DHT22;11055;50.870;4.316;2023-04-03T06:24:39;4.90;99.90
21787;DHT22;11055;50.870;4.316;2023-04-03T06:27:04;4.90;99.90
21787;DHT22;11055;50.870;4.316;2023-04-03T06:29:30;4.90;99.90
21787;DHT22;11055;50.870;4.316;2023-04-03T06:31:56;4.80;99.90
21787;DHT22;11055;50.870;4.316;2023-04-03T06:34:22;5.00;99.90
21787;DHT22;11055;50.870;4.316;2023-04-03T06:36:48;5.10;99.90
21787;DHT22;11055;50.870;4.316;2023-04-03T06:39:21;5.20;99.90
21787;DHT22;11055;50.870;4.316;2023-04-03T06:41:50;5.40;99.90
21787;DHT22;11055;50.870;4.316;2023-04-03T06:44:16;5.40;99.90
21787;DHT22;11055;50.870;4.316;2023-04-03T06:46:43;5.50;99.90
21787;DHT22;11055;50.870;4.316;2023-04-03T06:49:09;5.60;99.90
21787;DHT22;11055;50.870;4.316;2023-04-03T06:51:36;5.60;99.90
21787;DHT22;11055;50.870;4.316;2023-04-03T06:54:03;5.60;99.90
21787;DHT22;11055;50.870;4.316;2023-04-03T06:56:30;5.70;99.90
21787;DHT22;11055;50.870;4.316;2023-04-03T06:58:57;5.80;99.90
21787;DHT22;11055;50.870;4.316;2023-04-03T07:01:27;5.70;99.90
21787;DHT22;11055;50.870;4.316;2023-04-03T07:03:54;5.70;99.90
21787;DHT22;11055;50.870;4.316;2023-04-03T07:06:20;5.80;99.90
21787;DHT22;11055;50.870;4.316;2023-04-03T07:08:46;5.80;99.90
21787;DHT22;11055;50.870;4.316;2023-04-03T07:11:13;5.90;99.90
21787;DHT22;11055;50.870;4.316;2023-04-03T07:13:39;5.80;99.90
21787;DHT22;11055;50.870;4.316;2023-04-03T07:16:06;5.90;99.90
21787;DHT22;11055;50.870;4.316;2023-04-03T07:18:33;5.80;99.90
21787;DHT22;11055;50.870;4.316;2023-04-03T07:20:59;5.80;99.90
21787;DHT22;11055;50.870;4.316;2023-04-03T07:23:25;5.70;99.90
21787;DHT22;11055;50.870;4.316;2023-04-03T07:25:51;5.60;99.90
21787;DHT22;11055;50.870;4.316;2023-04-03T07:28:18;5.50;99.90
21787;DHT22;11055;50.870;4.316;2023-04-03T07:30:50;5.50;99.90
21787;DHT22;11055;50.870;4.316;2023-04-03T07:33:17;5.60;99.90
21787;DHT22;11055;50.870;4.316;2023-04-03T07:35:43;5.90;99.90
21787;DHT22;11055;50.870;4.316;2023-04-03T07:38:10;6.30;99.90
21787;DHT22;11055;50.870;4.316;2023-04-03T07:40:36;6.90;99.90
21787;DHT22;11055;50.870;4.316;2023-04-03T07:43:02;7.30;99.90
21787;DHT22;11055;50.870;4.316;2023-04-03T07:45:29;7.80;99.90
21787;DHT22;11055;50.870;4.316;2023-04-03T07:47:55;8.30;99.90
21787;DHT22;11055;50.870;4.316;2023-04-03T07:50:21;8.70;99.90
21787;DHT22;11055;50.870;4.316;2023-04-03T07:52:47;9.50;99.90
21787;DHT22;11055;50.870;4.316;2023-04-03T07:55:13;9.70;99.90
21787;DHT22;11055;50.870;4.316;2023-04-03T07:57:39;10.10;99.90
21787;DHT22;11055;50.870;4.316;2023-04-03T08:00:06;10.30;99.90
21787;DHT22;11055;50.870;4.316;2023-04-03T08:02:32;10.20;99.90
21787;DHT22;11055;50.870;4.316;2023-04-03T08:04:58;10.40;99.90
21787;DHT22;11055;50.870;4.316;2023-04-03T08:07:24;10.20;99.90
21787;DHT22;11055;50.870;4.316;2023-04-03T08:09:51;10.10;99.90
21787;DHT22;11055;50.870;4.316;2023-04-03T08:12:16;9.90;99.90
21787;DHT22;11055;50.870;4.316;2023-04-03T08:14:42;9.80;99.90
21787;DHT22;11055;50.870;4.316;2023-04-03T08:17:08;9.50;99.90
21787;DHT22;11055;50.870;4.316;2023-04-03T08:19:38;9.10;99.90
21787;DHT22;11055;50.870;4.316;2023-04-03T08:22:04;9.00;99.90
21787;DHT22;11055;50.870;4.316;2023-04-03T08:24:31;8.60;99.90
21787;DHT22;11055;50.870;4.316;2023-04-03T08:26:56;8.30;99.90
21787;DHT22;11055;50.870;4.316;2023-04-03T08:29:23;8.20;99.90
21787;DHT22;11055;50.870;4.316;2023-04-03T08:31:49;7.90;99.90
21787;DHT22;11055;50.870;4.316;2023-04-03T08:34:16;7.60;99.90
21787;DHT22;11055;50.870;4.316;2023-04-03T08:36:42;7.60;99.90
21787;DHT22;11055;50.870;4.316;2023-04-03T08:39:08;7.50;99.90
21787;DHT22;11055;50.870;4.316;2023-04-03T08:44:18;7.60;99.90
21787;DHT22;11055;50.870;4.316;2023-04-03T08:49:51;7.70;99.90
21787;DHT22;11055;50.870;4.316;2023-04-03T08:52:32;7.60;99.90
21787;DHT22;11055;50.870;4.316;2023-04-03T08:55:02;7.60;99.90
21787;DHT22;11055;50.870;4.316;2023-04-03T08:57:42;7.60;99.90
21787;DHT22;11055;50.870;4.316;2023-04-03T09:00:22;7.70;99.90
21787;DHT22;11055;50.870;4.316;2023-04-03T09:02:53;7.80;99.90
21787;DHT22;11055;50.870;4.316;2023-04-03T09:05:35;7.90;99.90
21787;DHT22;11055;50.870;4.316;2023-04-03T09:08:24;7.90;99.90
21787;DHT22;11055;50.870;4.316;2023-04-03T09:11:09;7.80;99.90
21787;DHT22;11055;50.870;4.316;2023-04-03T09:13:49;7.80;99.90
21787;DHT22;11055;50.870;4.316;2023-04-03T09:16:36;7.80;99.90
21787;DHT22;11055;50.870;4.316;2023-04-03T09:21:40;7.80;99.90
21787;DHT22;11055;50.870;4.316;2023-04-03T09:24:10;7.90;99.90
21787;DHT22;11055;50.870;4.316;2023-04-03T09:26:57;7.90;99.90
21787;DHT22;11055;50.870;4.316;2023-04-03T09:29:25;7.90;99.90
21787;DHT22;11055;50.870;4.316;2023-04-03T09:32:00;8.00;99.90
21787;DHT22;11055;50.870;4.316;2023-04-03T09:36:55;8.10;99.90
21787;DHT22;11055;50.870;4.316;2023-04-03T09:39:28;8.20;99.90
21787;DHT22;11055;50.870;4.316;2023-04-03T09:44:33;8.20;99.90
21787;DHT22;11055;50.870;4.316;2023-04-03T09:46:59;8.30;99.90
21787;DHT22;11055;50.870;4.316;2023-04-03T09:49:26;8.40;99.90
21787;DHT22;11055;50.870;4.316;2023-04-03T09:51:51;8.40;99.90
21787;DHT22;11055;50.870;4.316;2023-04-03T09:54:35;8.40;99.90
21787;DHT22;11055;50.870;4.316;2023-04-03T09:57:09;8.30;99.90
21787;DHT22;11055;50.870;4.316;2023-04-03T09:59:37;8.30;99.90
21787;DHT22;11055;50.870;4.316;2023-04-03T10:04:56;8.40;99.90
21787;DHT22;11055;50.870;4.316;2023-04-03T10:07:29;8.40;99.90
21787;DHT22;11055;50.870;4.316;2023-04-03T10:10:00;8.50;99.90
21787;DHT22;11055;50.870;4.316;2023-04-03T10:12:27;8.50;99.90
21787;DHT22;11055;50.870;4.316;2023-04-03T10:17:21;8.50;99.90
21787;DHT22;11055;50.870;4.316;2023-04-03T10:28:49;8.90;99.90
21787;DHT22;11055;50.870;4.316;2023-04-03T10:34:23;8.80;99.90
21787;DHT22;11055;50.870;4.316;2023-04-03T10:36:56;8.90;99.90
21787;DHT22;11055;50.870;4.316;2023-04-03T10:55:45;15.80;79.00
21787;DHT22;11055;50.870;4.316;2023-04-03T10:58:43;18.20;73.10
21787;DHT22;11055;50.870;4.316;2023-04-03T11:01:14;20.60;61.20
21787;DHT22;11055;50.870;4.316;2023-04-03T11:03:54;21.50;56.20
21787;DHT22;11055;50.870;4.316;2023-04-03T11:06:23;23.30;48.60
21787;DHT22;11055;50.870;4.316;2023-04-03T11:11:37;26.20;41.00
21787;DHT22;11055;50.870;4.316;2023-04-03T11:17:02;26.40;36.30
21787;DHT22;11055;50.870;4.316;2023-04-03T11:19:37;26.60;34.60
21787;DHT22;11055;50.870;4.316;2023-04-03T11:22:18;26.60;35.00
21787;DHT22;11055;50.870;4.316;2023-04-03T11:25:37;26.00;33.50
21787;DHT22;11055;50.870;4.316;2023-04-03T11:35:45;30.80;29.60
21787;DHT22;11055;50.870;4.316;2023-04-03T11:38:21;31.90;28.10
21787;DHT22;11055;50.870;4.316;2023-04-03T11:40:49;32.10;26.90
21787;DHT22;11055;50.870;4.316;2023-04-03T11:43:26;33.90;26.10
21787;DHT22;11055;50.870;4.316;2023-04-03T11:46:05;33.00;25.10
21787;DHT22;11055;50.870;4.316;2023-04-03T11:51:02;34.60;24.80
21787;DHT22;11055;50.870;4.316;2023-04-03T11:53:47;33.70;23.50
21787;DHT22;11055;50.870;4.316;2023-04-03T12:01:54;31.10;25.40
21787;DHT22;11055;50.870;4.316;2023-04-03T12:04:23;32.80;24.50
21787;DHT22;11055;50.870;4.316;2023-04-03T12:06:59;34.20;23.70
21787;DHT22;11055;50.870;4.316;2023-04-03T12:09:26;35.70;22.80
21787;DHT22;11055;50.870;4.316;2023-04-03T12:11:53;35.80;22.40
21787;DHT22;11055;50.870;4.316;2023-04-03T12:14:22;34.30;22.90
21787;DHT22;11055;50.870;4.316;2023-04-03T12:16:50;34.50;22.70
21787;DHT22;11055;50.870;4.316;2023-04-03T12:46:54;37.00;19.70
21787;DHT22;11055;50.870;4.316;2023-04-03T12:51:57;41.70;17.80
21787;DHT22;11055;50.870;4.316;2023-04-03T12:54:38;38.60;17.50
21787;DHT22;11055;50.870;4.316;2023-04-03T12:59:36;40.30;17.50
21787;DHT22;11055;50.870;4.316;2023-04-03T13:02:15;39.90;17.10
21787;DHT22;11055;50.870;4.316;2023-04-03T13:04:43;38.80;17.20
21787;DHT22;11055;50.870;4.316;2023-04-03T13:07:24;39.00;17.40
21787;DHT22;11055;50.870;4.316;2023-04-03T13:10:01;37.50;17.90
21787;DHT22;11055;50.870;4.316;2023-04-03T13:12:28;39.70;17.10
21787;DHT22;11055;50.870;4.316;2023-04-03T13:14:57;38.90;16.70
21787;DHT22;11055;50.870;4.316;2023-04-03T13:17:23;38.60;17.00
21787;DHT22;11055;50.870;4.316;2023-04-03T13:19:49;40.40;17.10
21787;DHT22;11055;50.870;4.316;2023-04-03T13:22:36;43.10;16.20
21787;DHT22;11055;50.870;4.316;2023-04-03T13:25:11;43.10;15.10
21787;DHT22;11055;50.870;4.316;2023-04-03T13:27:39;41.20;15.50
21787;DHT22;11055;50.870;4.316;2023-04-03T13:32:48;38.90;15.80
21787;DHT22;11055;50.870;4.316;2023-04-03T13:35:56;39.70;15.40
21787;DHT22;11055;50.870;4.316;2023-04-03T13:38:28;40.40;15.30
21787;DHT22;11055;50.870;4.316;2023-04-03T13:40:58;39.20;15.30
21787;DHT22;11055;50.870;4.316;2023-04-03T13:43:31;35.80;16.70
21787;DHT22;11055;50.870;4.316;2023-04-03T13:48:45;35.20;16.10
21787;DHT22;11055;50.870;4.316;2023-04-03T13:53:58;30.90;18.30
21787;DHT22;11055;50.870;4.316;2023-04-03T13:56:34;32.80;18.60
21787;DHT22;11055;50.870;4.316;2023-04-03T14:02:09;28.20;20.40
21787;DHT22;11055;50.870;4.316;2023-04-03T14:07:11;22.20;24.70
21787;DHT22;11055;50.870;4.316;2023-04-03T14:09:37;20.20;26.80
21787;DHT22;11055;50.870;4.316;2023-04-03T14:12:11;18.10;28.20
21787;DHT22;11055;50.870;4.316;2023-04-03T14:14:37;17.40;30.50
21787;DHT22;11055;50.870;4.316;2023-04-03T14:17:18;17.10;31.30
21787;DHT22;11055;50.870;4.316;2023-04-03T14:19:44;16.40;30.80
21787;DHT22;11055;50.870;4.316;2023-04-03T14:22:18;15.80;32.60
21787;DHT22;11055;50.870;4.316;2023-04-03T14:24:45;15.70;33.60
21787;DHT22;11055;50.870;4.316;2023-04-03T14:27:24;15.50;33.30
21787;DHT22;11055;50.870;4.316;2023-04-03T14:29:52;15.40;33.30
21787;DHT22;11055;50.870;4.316;2023-04-03T14:32:20;14.70;33.70
21787;DHT22;11055;50.870;4.316;2023-04-03T14:34:47;14.50;34.50
21787;DHT22;11055;50.870;4.316;2023-04-03T14:37:16;14.40;35.10
21787;DHT22;11055;50.870;4.316;2023-04-03T14:39:44;14.50;35.40
21787;DHT22;11055;50.870;4.316;2023-04-03T14:42:19;14.30;34.80
21787;DHT22;11055;50.870;4.316;2023-04-03T14:44:45;14.10;35.50
21787;DHT22;11055;50.870;4.316;2023-04-03T14:47:14;14.00;35.70
21787;DHT22;11055;50.870;4.316;2023-04-03T14:49:41;13.90;35.30
21787;DHT22;11055;50.870;4.316;2023-04-03T14:52:20;13.70;34.90
21787;DHT22;11055;50.870;4.316;2023-04-03T14:54:47;13.50;35.70
21787;DHT22;11055;50.870;4.316;2023-04-03T14:57:15;13.40;35.50
21787;DHT22;11055;50.870;4.316;2023-04-03T14:59:41;13.20;36.50
21787;DHT22;11055;50.870;4.316;2023-04-03T15:04:59;12.90;37.60
21787;DHT22;11055;50.870;4.316;2023-04-03T15:07:27;13.00;38.00
21787;DHT22;11055;50.870;4.316;2023-04-03T15:09:54;13.00;38.50
21787;DHT22;11055;50.870;4.316;2023-04-03T15:12:22;13.00;38.20
21787;DHT22;11055;50.870;4.316;2023-04-03T15:14:48;12.90;38.40
21787;DHT22;11055;50.870;4.316;2023-04-03T15:17:21;12.70;38.20
21787;DHT22;11055;50.870;4.316;2023-04-03T15:19:47;12.70;38.00
21787;DHT22;11055;50.870;4.316;2023-04-03T15:22:15;12.60;38.30
21787;DHT22;11055;50.870;4.316;2023-04-03T15:24:42;12.70;38.80
21787;DHT22;11055;50.870;4.316;2023-04-03T15:27:09;12.60;38.80
21787;DHT22;11055;50.870;4.316;2023-04-03T15:29:35;12.80;38.50
21787;DHT22;11055;50.870;4.316;2023-04-03T15:32:01;12.90;38.60
21787;DHT22;11055;50.870;4.316;2023-04-03T15:34:27;13.00;38.20
21787;DHT22;11055;50.870;4.316;2023-04-03T15:36:53;13.00;37.60
21787;DHT22;11055;50.870;4.316;2023-04-03T15:39:19;12.80;37.50
21787;DHT22;11055;50.870;4.316;2023-04-03T15:41:45;12.70;37.50
21787;DHT22;11055;50.870;4.316;2023-04-03T15:44:11;12.80;37.70
21787;DHT22;11055;50.870;4.316;2023-04-03T15:46:38;12.70;38.20
21787;DHT22;11055;50.870;4.316;2023-04-03T15:49:04;12.70;38.00
21787;DHT22;11055;50.870;4.316;2023-04-03T15:51:31;12.70;38.20
21787;DHT22;11055;50.870;4.316;2023-04-03T15:53:56;12.90;38.80
21787;DHT22;11055;50.870;4.316;2023-04-03T15:56:22;12.90;38.50
21787;DHT22;11055;50.870;4.316;2023-04-03T15:58:48;13.00;38.40
21787;DHT22;11055;50.870;4.316;2023-04-03T16:01:13;13.10;38.40
21787;DHT22;11055;50.870;4.316;2023-04-03T16:03:41;13.10;38.00
21787;DHT22;11055;50.870;4.316;2023-04-03T16:06:12;12.80;37.90
21787;DHT22;11055;50.870;4.316;2023-04-03T16:08:38;12.70;38.20
21787;DHT22;11055;50.870;4.316;2023-04-03T16:11:04;12.70;38.90
21787;DHT22;11055;50.870;4.316;2023-04-03T16:13:29;12.80;39.40
21787;DHT22;11055;50.870;4.316;2023-04-03T16:15:56;12.90;39.00
21787;DHT22;11055;50.870;4.316;2023-04-03T16:18:21;12.80;38.70
21787;DHT22;11055;50.870;4.316;2023-04-03T16:20:47;12.90;38.30
21787;DHT22;11055;50.870;4.316;2023-04-03T16:23:14;12.80;38.50
21787;DHT22;11055;50.870;4.316;2023-04-03T16:25:39;12.70;38.80
21787;DHT22;11055;50.870;4.316;2023-04-03T16:28:05;12.70;39.40
21787;DHT22;11055;50.870;4.316;2023-04-03T16:30:32;12.80;39.40
21787;DHT22;11055;50.870;4.316;2023-04-03T16:32:58;13.00;39.50
21787;DHT22;11055;50.870;4.316;2023-04-03T16:35:24;13.10;39.10
21787;DHT22;11055;50.870;4.316;2023-04-03T16:37:49;12.90;39.00
21787;DHT22;11055;50.870;4.316;2023-04-03T16:40:15;12.70;39.30
21787;DHT22;11055;50.870;4.316;2023-04-03T16:42:41;12.80;39.80
21787;DHT22;11055;50.870;4.316;2023-04-03T16:45:07;12.60;39.50
21787;DHT22;11055;50.870;4.316;2023-04-03T16:47:33;12.50;40.10
21787;DHT22;11055;50.870;4.316;2023-04-03T16:49:59;12.30;40.50
21787;DHT22;11055;50.870;4.316;2023-04-03T16:52:24;12.20;40.90
21787;DHT22;11055;50.870;4.316;2023-04-03T16:54:50;12.20;41.60
21787;DHT22;11055;50.870;4.316;2023-04-03T16:57:21;12.10;41.70
21787;DHT22;11055;50.870;4.316;2023-04-03T16:59:47;12.10;42.20
21787;DHT22;11055;50.870;4.316;2023-04-03T17:02:12;12.00;42.40
21787;DHT22;11055;50.870;4.316;2023-04-03T17:04:38;11.90;42.60
21787;DHT22;11055;50.870;4.316;2023-04-03T17:07:04;11.80;43.10
21787;DHT22;11055;50.870;4.316;2023-04-03T17:09:32;11.80;43.30
21787;DHT22;11055;50.870;4.316;2023-04-03T17:11:58;11.70;43.20
21787;DHT22;11055;50.870;4.316;2023-04-03T17:14:24;11.60;43.40
21787;DHT22;11055;50.870;4.316;2023-04-03T17:16:50;11.60;43.70
21787;DHT22;11055;50.870;4.316;2023-04-03T17:19:16;11.70;43.30
21787;DHT22;11055;50.870;4.316;2023-04-03T17:21:43;11.60;43.50
21787;DHT22;11055;50.870;4.316;2023-04-03T17:24:10;11.40;43.60
21787;DHT22;11055;50.870;4.316;2023-04-03T17:26:39;11.40;44.20
21787;DHT22;11055;50.870;4.316;2023-04-03T17:29:05;11.30;44.50
21787;DHT22;11055;50.870;4.316;2023-04-03T17:31:31;11.20;44.70
21787;DHT22;11055;50.870;4.316;2023-04-03T17:33:57;11.20;44.60
21787;DHT22;11055;50.870;4.316;2023-04-03T17:36:29;11.10;44.60
21787;DHT22;11055;50.870;4.316;2023-04-03T17:38:55;11.10;45.00
21787;DHT22;11055;50.870;4.316;2023-04-03T17:41:21;11.00;45.10
21787;DHT22;11055;50.870;4.316;2023-04-03T17:43:47;11.10;46.10
21787;DHT22;11055;50.870;4.316;2023-04-03T17:46:12;11.10;45.60
21787;DHT22;11055;50.870;4.316;2023-04-03T17:48:41;11.10;45.60
21787;DHT22;11055;50.870;4.316;2023-04-03T17:51:15;11.00;45.80
21787;DHT22;11055;50.870;4.316;2023-04-03T17:53:42;10.90;45.70